Time;durP1;ratioP1;P1;durP2;ratioP2;P2;SDS_P1;SDS_P2;PMS_P1;PMS_P2;Temp;Humidity;BMP_temperature;BMP_pressure;BME280_temperature;BME280_humidity;BME280_pressure;Samples;Min_cycle;Max_cycle;Signal;HPM_P1;HPM_P2
2022/04/19 00:01:54;;;;;;;0.30;0.30;;;6.50;76.00;;;;;;5034008;28;20037;-92
2022/04/19 00:04:27;;;;;;;;;;;6.50;75.70;;;;;;5032729;28;20394;-93
2022/04/19 00:07:31;;;;;;;0.30;0.30;;;6.60;75.70;;;;;;5036351;28;19905;-92
2022/04/19 00:10:12;;;;;;;0.45;0.45;;;6.50;76.40;;;;;;4995585;28;20082;-92
2022/04/19 00:12:43;;;;;;;0.30;0.30;;;6.50;76.40;;;;;;5033626;28;20021;-92
2022/04/19 00:15:23;;;;;;;0.30;0.30;;;6.70;75.70;;;;;;5036202;28;20013;-92
2022/04/19 00:18:04;;;;;;;0.30;0.30;;;6.70;75.00;;;;;;5064973;28;20024;-92
2022/04/19 00:21:18;;;;;;;0.40;0.40;;;6.50;75.80;;;;;;5045885;28;20021;-93
2022/04/19 00:23:53;;;;;;;0.30;0.30;;;6.60;75.90;;;;;;5050426;28;20037;-92
2022/04/19 00:27:05;;;;;;;0.30;0.30;;;6.60;76.10;;;;;;5032855;28;20021;-92
2022/04/19 00:29:57;;;;;;;;;;;;;;;;;;;;;
2022/04/19 00:35:31;;;;;;;0.30;0.30;;;6.30;76.70;;;;;;5043093;28;20117;-92
2022/04/19 00:38:21;;;;;;;0.30;0.30;;;6.40;76.60;;;;;;5033281;28;20029;-92
2022/04/19 00:40:56;;;;;;;0.70;0.70;;;6.70;75.80;;;;;;5033400;28;20039;-93
2022/04/19 00:43:33;;;;;;;0.30;0.30;;;6.60;75.10;;;;;;5033809;28;20009;-93
2022/04/19 00:53:17;;;;;;;0.68;0.68;;;6.20;77.10;;;;;;5005756;28;20756;-92
2022/04/19 00:56:15;;;;;;;0.40;0.40;;;6.20;77.30;;;;;;5030912;28;20040;-93
2022/04/19 00:58:59;;;;;;;0.55;0.55;;;6.40;77.30;;;;;;5031391;28;20037;-93
2022/04/19 01:02:02;;;;;;;0.40;0.40;;;6.00;78.00;;;;;;5028243;28;20021;-93
2022/04/19 01:04:55;;;;;;;0.50;0.50;;;5.80;78.90;;;;;;5049271;28;20047;-92
2022/04/19 01:07:41;;;;;;;0.40;0.40;;;5.50;80.10;;;;;;5029572;28;20330;-92
2022/04/19 01:10:07;;;;;;;2.60;1.50;;;5.50;80.80;;;;;;5029179;28;20410;-92
2022/04/19 01:15:28;;;;;;;0.30;0.30;;;5.40;81.40;;;;;;5046757;28;20017;-91
2022/04/19 01:18:02;;;;;;;0.52;0.52;;;5.60;81.20;;;;;;5031284;28;20025;-92
2022/04/19 01:20:38;;;;;;;0.30;0.30;;;5.80;80.40;;;;;;5031312;28;20550;-92
2022/04/19 01:23:08;;;;;;;0.80;0.70;;;5.80;79.80;;;;;;5029857;28;20124;-91
2022/04/19 01:25:42;;;;;;;0.45;0.45;;;5.80;80.10;;;;;;5031761;28;20036;-92
2022/04/19 01:28:25;;;;;;;0.35;0.35;;;5.70;80.00;;;;;;5030875;28;20120;-92
2022/04/19 01:30:59;;;;;;;0.60;0.60;;;5.70;80.90;;;;;;5035304;28;20048;-92
2022/04/19 01:33:33;;;;;;;0.40;0.40;;;5.60;81.40;;;;;;5035249;28;20037;-92
2022/04/19 01:40:41;;;;;;;0.65;0.65;;;5.50;81.40;;;;;;5003146;28;20114;-93
2022/04/19 01:48:08;;;;;;;0.30;0.30;;;5.20;82.90;;;;;;5001769;28;20050;-92
2022/04/19 01:51:05;;;;;;;0.50;0.50;;;5.40;82.30;;;;;;5029940;28;20044;-92
2022/04/19 01:53:31;;;;;;;0.65;0.55;;;5.10;82.90;;;;;;5026368;28;20040;-92
2022/04/19 01:56:03;;;;;;;0.30;0.30;;;5.10;83.00;;;;;;5028302;28;20017;-92
2022/04/19 01:58:40;;;;;;;;;;;5.20;83.40;;;;;;5027234;28;20037;-92
2022/04/19 02:01:17;;;;;;;0.68;0.68;;;5.10;83.20;;;;;;5029564;28;19904;-91
2022/04/19 02:03:51;;;;;;;0.70;0.55;;;5.10;83.60;;;;;;5027669;28;20409;-92
2022/04/19 02:06:44;;;;;;;1.20;1.10;;;5.10;83.60;;;;;;5027300;28;20411;-92
2022/04/19 02:09:33;;;;;;;0.30;0.30;;;5.10;83.50;;;;;;5032350;28;20028;-92
2022/04/19 02:12:02;;;;;;;0.35;0.35;;;5.20;83.60;;;;;;5039252;28;20043;-92
2022/04/19 02:14:46;;;;;;;;;;;5.20;83.10;;;;;;5045551;28;20021;-91
2022/04/19 02:17:23;;;;;;;0.82;0.82;;;5.20;83.10;;;;;;5029589;28;19915;-92
2022/04/19 02:20:28;;;;;;;0.55;0.55;;;5.20;83.00;;;;;;5029438;28;20021;-92
2022/04/19 02:22:57;;;;;;;0.45;0.45;;;5.30;82.80;;;;;;5030285;28;20422;-92
2022/04/19 02:25:29;;;;;;;0.40;0.40;;;5.40;82.20;;;;;;5029670;28;20116;-92
2022/04/19 02:28:05;;;;;;;;;;;;;;;;;;;;;
2022/04/19 02:30:42;;;;;;;0.47;0.47;;;5.40;82.10;;;;;;5053748;28;19908;-92
2022/04/19 02:33:16;;;;;;;0.63;0.60;;;5.40;82.10;;;;;;5029891;28;20113;-92
2022/04/19 02:36:00;;;;;;;0.40;0.40;;;5.40;81.90;;;;;;5031166;28;20299;-91
2022/04/19 02:38:28;;;;;;;0.50;0.50;;;5.40;82.20;;;;;;5031352;28;20051;-92
2022/04/19 02:41:04;;;;;;;0.30;0.30;;;5.40;81.90;;;;;;5048319;28;20125;-92
2022/04/19 02:43:46;;;;;;;0.52;0.52;;;5.30;82.50;;;;;;5041929;28;20021;-93
2022/04/19 02:46:23;;;;;;;0.50;0.50;;;5.40;82.40;;;;;;5036522;28;20013;-92
2022/04/19 02:48:58;;;;;;;0.32;0.32;;;5.50;82.20;;;;;;5044894;28;20056;-92
2022/04/19 02:52:09;;;;;;;;;;;;;;;;;;;;;
2022/04/19 02:54:29;;;;;;;0.30;0.30;;;5.50;83.00;;;;;;5050650;28;20044;-74
2022/04/19 02:56:55;;;;;;;0.32;0.32;;;5.60;82.00;;;;;;5034155;28;20067;-74
2022/04/19 02:59:21;;;;;;;0.20;0.20;;;5.60;81.90;;;;;;5052193;28;20408;-74
2022/04/19 03:01:46;;;;;;;0.40;0.40;;;5.60;81.70;;;;;;5034546;28;20036;-74
2022/04/19 03:04:12;;;;;;;0.38;0.38;;;5.50;82.70;;;;;;5052233;28;20029;-74
2022/04/19 03:06:38;;;;;;;1.05;0.80;;;5.50;82.70;;;;;;5034090;28;20032;-74
2022/04/19 03:09:04;;;;;;;0.30;0.30;;;5.50;82.40;;;;;;5051961;28;20102;-74
2022/04/19 03:11:32;;;;;;;0.30;0.30;;;5.40;82.30;;;;;;5034412;28;20476;-74
2022/04/19 03:13:57;;;;;;;0.30;0.30;;;5.40;82.30;;;;;;5051978;28;20021;-74
2022/04/19 03:16:24;;;;;;;0.40;0.40;;;5.50;82.40;;;;;;5051743;28;20029;-74
2022/04/19 03:18:50;;;;;;;0.30;0.30;;;5.60;81.70;;;;;;5051889;28;20396;-74
2022/04/19 03:21:15;;;;;;;0.28;0.28;;;5.60;81.30;;;;;;5051380;28;20032;-74
2022/04/19 03:29:11;;;;;;;0.30;0.30;;;5.70;81.70;;;;;;5034006;28;20025;-74
2022/04/19 03:31:38;;;;;;;0.65;0.65;;;5.70;81.60;;;;;;5051801;28;20046;-74
2022/04/19 03:34:05;;;;;;;0.30;0.30;;;5.80;81.80;;;;;;5051828;28;20025;-74
2022/04/19 03:36:31;;;;;;;0.30;0.30;;;5.70;81.30;;;;;;5033878;28;20096;-74
2022/04/19 03:38:58;;;;;;;0.30;0.30;;;5.70;81.60;;;;;;5051763;28;20039;-74
2022/04/19 03:41:24;;;;;;;0.30;0.30;;;5.70;81.30;;;;;;5051721;28;20060;-74
2022/04/19 03:43:53;;;;;;;0.30;0.30;;;5.80;81.60;;;;;;5033972;28;20030;-74
2022/04/19 03:46:20;;;;;;;0.40;0.40;;;5.90;81.30;;;;;;5017329;28;20480;-74
2022/04/19 03:48:46;;;;;;;0.52;0.45;;;5.80;82.00;;;;;;5051684;28;20419;-74
2022/04/19 03:51:12;;;;;;;0.40;0.40;;;5.70;81.70;;;;;;5051633;28;20060;-74
2022/04/19 03:53:38;;;;;;;0.50;0.50;;;5.60;82.00;;;;;;5051376;28;20037;-74
2022/04/19 03:56:04;;;;;;;0.40;0.40;;;5.40;83.70;;;;;;5051425;28;20558;-74
2022/04/19 03:58:32;;;;;;;0.30;0.30;;;5.30;83.60;;;;;;5033699;28;20024;-74
2022/04/19 04:00:59;;;;;;;1.05;0.68;;;5.50;83.80;;;;;;5017319;28;20366;-74
2022/04/19 04:03:24;;;;;;;1.40;0.60;;;5.50;83.00;;;;;;5033761;28;20532;-73
2022/04/19 04:05:50;;;;;;;0.40;0.40;;;5.30;83.50;;;;;;5051512;28;20053;-73
2022/04/19 04:08:16;;;;;;;0.45;0.45;;;5.20;83.70;;;;;;5051906;28;20100;-74
2022/04/19 04:10:42;;;;;;;0.50;0.50;;;5.20;84.00;;;;;;5051622;28;20472;-74
2022/04/19 04:13:09;;;;;;;0.40;0.40;;;5.30;84.20;;;;;;5051434;28;20039;-74
2022/04/19 04:15:35;;;;;;;0.30;0.30;;;5.30;84.00;;;;;;5033292;28;20029;-73
2022/04/19 04:18:01;;;;;;;0.40;0.40;;;5.40;83.90;;;;;;5051443;28;20022;-74
2022/04/19 04:20:27;;;;;;;0.30;0.30;;;5.40;83.70;;;;;;5051444;28;20358;-74
2022/04/19 04:22:52;;;;;;;0.30;0.30;;;5.50;84.00;;;;;;5051370;28;20040;-74
2022/04/19 04:25:18;;;;;;;0.43;0.43;;;5.50;84.20;;;;;;5051519;28;20036;-74
2022/04/19 04:27:44;;;;;;;0.30;0.30;;;5.40;84.10;;;;;;5051242;28;20104;-74
2022/04/19 04:30:10;;;;;;;0.30;0.30;;;5.50;84.00;;;;;;5051186;28;20060;-74
2022/04/19 04:32:36;;;;;;;0.30;0.30;;;5.60;84.20;;;;;;5054499;28;20040;-74
2022/04/19 04:35:01;;;;;;;0.40;0.40;;;5.70;84.30;;;;;;5054930;28;20017;-74
2022/04/19 04:37:27;;;;;;;0.30;0.30;;;5.60;84.70;;;;;;5054634;28;20025;-74
2022/04/19 04:39:53;;;;;;;0.30;0.30;;;5.60;85.00;;;;;;5037015;28;20028;-74
2022/04/19 04:42:18;;;;;;;0.40;0.40;;;5.60;85.30;;;;;;5054723;28;20029;-74
2022/04/19 04:44:44;;;;;;;0.70;0.70;;;5.70;85.40;;;;;;5020290;28;20091;-74
2022/04/19 04:50:01;;;;;;;0.30;0.30;;;5.70;84.60;;;;;;5054584;28;20104;-74
2022/04/19 04:52:26;;;;;;;0.75;0.75;;;5.80;83.80;;;;;;5054504;28;20025;-73
2022/04/19 04:54:52;;;;;;;0.30;0.30;;;5.80;83.80;;;;;;5055053;28;20426;-74
2022/04/19 04:57:19;;;;;;;0.30;0.30;;;5.70;83.40;;;;;;5054480;28;20029;-74
2022/04/19 04:59:47;;;;;;;0.40;0.40;;;5.70;84.20;;;;;;5054507;28;20021;-74
2022/04/19 05:02:12;;;;;;;0.40;0.40;;;5.80;83.00;;;;;;5066880;22;20048;-77
2022/04/19 05:04:38;;;;;;;0.40;0.40;;;5.90;83.10;;;;;;5036208;28;20025;-76
2022/04/19 05:07:04;;;;;;;0.35;0.35;;;5.90;82.90;;;;;;5054099;28;20123;-76
2022/04/19 05:09:30;;;;;;;0.30;0.30;;;5.90;83.30;;;;;;5054353;28;20029;-76
2022/04/19 05:11:56;;;;;;;0.30;0.30;;;5.90;82.90;;;;;;5036493;28;20100;-76
2022/04/19 05:14:22;;;;;;;0.30;0.30;;;6.10;82.90;;;;;;5054253;28;20146;-76
2022/04/19 05:16:48;;;;;;;0.30;0.30;;;6.20;82.20;;;;;;5036265;28;20032;-76
2022/04/19 05:19:13;;;;;;;0.30;0.30;;;6.40;81.70;;;;;;5054067;28;20153;-76
2022/04/19 05:21:39;;;;;;;0.30;0.30;;;6.50;81.30;;;;;;5036095;28;20036;-76
2022/04/19 05:24:06;;;;;;;0.30;0.30;;;6.60;81.50;;;;;;5054045;28;20025;-76
2022/04/19 05:26:32;;;;;;;0.50;0.50;;;6.70;81.10;;;;;;5019269;28;20100;-76
2022/04/19 05:28:58;;;;;;;0.30;0.30;;;6.70;81.60;;;;;;5033949;28;20029;-77
2022/04/19 05:31:24;;;;;;;0.30;0.30;;;6.80;82.30;;;;;;5052726;28;20039;-76
2022/04/19 05:33:51;;;;;;;0.30;0.30;;;7.00;82.60;;;;;;5035879;28;20550;-76
2022/04/19 05:36:17;;;;;;;0.30;0.30;;;7.10;81.80;;;;;;5035246;28;20076;-76
2022/04/19 05:38:43;;;;;;;0.30;0.30;;;7.30;81.30;;;;;;5014160;28;20496;-77
2022/04/19 05:41:10;;;;;;;0.45;0.45;;;7.30;80.50;;;;;;5053483;28;20485;-76
2022/04/19 05:43:36;;;;;;;0.50;0.50;;;7.30;81.10;;;;;;5054061;28;20539;-76
2022/04/19 05:46:02;;;;;;;0.30;0.30;;;7.40;80.90;;;;;;5052775;28;20139;-76
2022/04/19 05:48:28;;;;;;;0.20;0.20;;;7.40;81.10;;;;;;5053176;28;20052;-77
2022/04/19 05:50:54;;;;;;;0.30;0.30;;;7.60;81.50;;;;;;5052951;28;20496;-76
2022/04/19 05:53:20;;;;;;;0.52;0.52;;;7.70;81.40;;;;;;5053387;28;20059;-77
2022/04/19 05:55:46;;;;;;;0.30;0.30;;;7.90;80.60;;;;;;5052500;28;20078;-77
2022/04/19 05:58:12;;;;;;;0.30;0.30;;;8.00;79.50;;;;;;5052106;28;20033;-77
2022/04/19 06:00:38;;;;;;;0.20;0.20;;;8.30;80.10;;;;;;5051903;28;20025;-76
2022/04/19 06:05:48;;;;;;;0.30;0.30;;;8.50;79.70;;;;;;5052477;28;20071;-76
2022/04/19 06:08:14;;;;;;;0.30;0.30;;;8.60;79.20;;;;;;5051930;28;20507;-76
2022/04/19 06:10:41;;;;;;;0.20;0.20;;;8.50;80.40;;;;;;5052253;28;20080;-76
2022/04/19 06:13:07;;;;;;;0.47;0.47;;;8.50;80.40;;;;;;5071494;28;20032;-77
2022/04/19 06:15:33;;;;;;;0.30;0.30;;;8.60;79.40;;;;;;5055110;28;20431;-76
2022/04/19 06:17:59;;;;;;;0.30;0.30;;;8.60;76.90;;;;;;5033889;28;20021;-76
2022/04/19 06:20:25;;;;;;;0.22;0.22;;;8.60;74.10;;;;;;5050412;28;20096;-76
2022/04/19 06:22:51;;;;;;;0.25;0.25;;;8.80;73.60;;;;;;5052333;28;20100;-76
2022/04/19 06:25:17;;;;;;;0.30;0.30;;;8.90;73.00;;;;;;5051968;28;20050;-76
2022/04/19 06:27:43;;;;;;;0.30;0.30;;;8.90;72.80;;;;;;5052470;28;20032;-75
2022/04/19 06:30:10;;;;;;;0.20;0.20;;;9.10;72.90;;;;;;5052143;28;20476;-76
2022/04/19 06:32:36;;;;;;;0.30;0.30;;;9.40;71.80;;;;;;5034641;28;20071;-76
2022/04/19 06:35:02;;;;;;;0.55;0.55;;;9.40;71.50;;;;;;5051890;28;20048;-76
2022/04/19 06:37:28;;;;;;;0.47;0.47;;;9.50;70.80;;;;;;5049185;28;20496;-76
2022/04/19 06:39:53;;;;;;;0.30;0.30;;;9.20;70.90;;;;;;5049382;28;20044;-76
2022/04/19 06:42:20;;;;;;;0.68;0.68;;;9.10;71.60;;;;;;5027582;28;20035;-76
2022/04/19 06:44:45;;;;;;;0.50;0.50;;;9.10;71.80;;;;;;5070887;28;20020;-76
2022/04/19 06:47:11;;;;;;;0.30;0.30;;;9.00;72.40;;;;;;5037433;28;20036;-76
2022/04/19 06:49:38;;;;;;;1.27;0.90;;;9.00;72.50;;;;;;5034346;28;20028;-76
2022/04/19 06:52:06;;;;;;;0.40;0.40;;;9.10;71.60;;;;;;5045495;28;20029;-76
2022/04/19 06:54:32;;;;;;;0.40;0.40;;;9.10;72.10;;;;;;5051212;28;20155;-76
2022/04/19 06:56:58;;;;;;;0.50;0.50;;;9.00;71.80;;;;;;5039863;28;20045;-76
2022/04/19 06:59:25;;;;;;;0.57;0.57;;;9.00;71.00;;;;;;5034229;28;20067;-76
2022/04/19 07:01:51;;;;;;;0.85;0.85;;;8.90;71.30;;;;;;5051597;28;20102;-76
2022/04/19 07:04:17;;;;;;;0.47;0.47;;;9.00;71.20;;;;;;5051332;28;20102;-76
2022/04/19 07:06:43;;;;;;;0.30;0.30;;;9.10;70.20;;;;;;5051207;28;20476;-76
2022/04/19 07:09:09;;;;;;;0.30;0.30;;;9.20;70.70;;;;;;5039994;28;20037;-76
2022/04/19 07:11:36;;;;;;;0.60;0.60;;;9.40;70.20;;;;;;5039746;28;20033;-76
2022/04/19 07:14:03;;;;;;;0.40;0.40;;;9.40;69.30;;;;;;5040830;28;20036;-76
2022/04/19 07:16:29;;;;;;;1.30;1.20;;;9.40;69.10;;;;;;5039927;28;20665;-77
2022/04/19 07:18:55;;;;;;;0.20;0.20;;;9.60;69.10;;;;;;5040324;28;20048;-76
2022/04/19 07:26:49;;;;;;;0.25;0.25;;;9.40;69.30;;;;;;5028463;28;20041;-76
2022/04/19 07:29:18;;;;;;;0.50;0.50;;;9.60;69.50;;;;;;5041964;28;20408;-76
2022/04/19 07:31:48;;;;;;;0.30;0.30;;;9.80;68.40;;;;;;5029977;28;20577;-76
2022/04/19 07:34:15;;;;;;;0.30;0.30;;;9.80;68.00;;;;;;5031283;28;20086;-76
2022/04/19 07:36:41;;;;;;;0.30;0.30;;;9.90;67.50;;;;;;5041731;28;20082;-77
2022/04/19 07:39:11;;;;;;;0.20;0.20;;;9.90;67.30;;;;;;5013264;28;20465;-76
2022/04/19 07:41:38;;;;;;;0.52;0.45;;;10.00;66.80;;;;;;5011441;28;20050;-77
2022/04/19 07:44:05;;;;;;;0.20;0.20;;;10.00;66.00;;;;;;5039445;28;20998;-77
2022/04/19 07:46:33;;;;;;;0.30;0.30;;;10.00;66.50;;;;;;5039485;28;20057;-76
2022/04/19 07:48:59;;;;;;;0.65;0.65;;;10.20;66.20;;;;;;5028918;28;20060;-77
2022/04/19 07:51:25;;;;;;;0.60;0.60;;;10.20;65.80;;;;;;5027909;28;20075;-76
2022/04/19 07:53:52;;;;;;;0.30;0.30;;;10.20;65.80;;;;;;5029870;28;20025;-78
2022/04/19 07:56:19;;;;;;;0.50;0.50;;;10.20;65.40;;;;;;5039728;28;20352;-78
2022/04/19 07:58:47;;;;;;;0.60;0.60;;;10.20;65.70;;;;;;5030234;28;20045;-76
2022/04/19 08:01:14;;;;;;;0.70;0.60;;;10.10;65.90;;;;;;5031567;28;20072;-76
2022/04/19 08:03:40;;;;;;;1.48;1.48;;;10.10;65.30;;;;;;5039732;28;20037;-76
2022/04/19 08:06:06;;;;;;;0.43;0.43;;;10.00;65.80;;;;;;5040725;28;20532;-76
2022/04/19 08:08:32;;;;;;;0.63;0.63;;;9.90;65.90;;;;;;5018880;28;20120;-76
2022/04/19 08:10:58;;;;;;;0.20;0.20;;;9.90;66.50;;;;;;5032683;28;20056;-76
2022/04/19 08:13:24;;;;;;;0.65;0.55;;;9.90;66.90;;;;;;5017482;28;20502;-76
2022/04/19 08:15:50;;;;;;;3.15;0.93;;;10.00;67.20;;;;;;5043476;28;20033;-76
2022/04/19 08:18:18;;;;;;;0.52;0.52;;;10.00;67.60;;;;;;5043300;28;20067;-76
2022/04/19 08:20:45;;;;;;;0.28;0.28;;;10.20;67.60;;;;;;5032266;28;20425;-76
2022/04/19 08:23:12;;;;;;;0.20;0.20;;;10.40;67.80;;;;;;5032277;28;20094;-77
2022/04/19 08:25:39;;;;;;;0.80;0.80;;;10.70;67.70;;;;;;5043329;28;20029;-77
2022/04/19 08:28:06;;;;;;;0.20;0.20;;;11.00;66.30;;;;;;5033646;28;20060;-76
2022/04/19 08:30:32;;;;;;;0.32;0.32;;;10.90;65.40;;;;;;5018176;28;20159;-77
2022/04/19 08:32:58;;;;;;;0.40;0.40;;;11.00;64.40;;;;;;5034761;28;21011;-77
2022/04/19 08:35:25;;;;;;;0.57;0.57;;;11.20;64.40;;;;;;5031609;28;20033;-77
2022/04/19 08:37:51;;;;;;;0.73;0.73;;;11.30;64.20;;;;;;5015125;28;20033;-77
2022/04/19 08:40:18;;;;;;;0.30;0.30;;;11.60;64.10;;;;;;5043495;28;20033;-76
2022/04/19 08:42:45;;;;;;;4.75;1.17;;;11.90;63.00;;;;;;5034294;28;20136;-77
2022/04/19 08:45:14;;;;;;;0.30;0.30;;;11.70;62.90;;;;;;5043480;28;20036;-76
2022/04/19 08:47:42;;;;;;;0.73;0.73;;;11.60;64.40;;;;;;5042617;28;20037;-77
2022/04/19 08:50:10;;;;;;;0.22;0.22;;;11.80;63.10;;;;;;5014419;28;20408;-76
2022/04/19 08:52:36;;;;;;;0.20;0.20;;;11.80;63.20;;;;;;5045964;28;20017;-77
2022/04/19 08:57:47;;;;;;;0.20;0.20;;;12.00;62.40;;;;;;5031325;28;20061;-77
2022/04/19 09:00:13;;;;;;;2.05;1.48;;;11.80;62.50;;;;;;5041800;28;20130;-78
2022/04/19 09:02:38;;;;;;;0.20;0.20;;;11.50;63.60;;;;;;5029576;28;20118;-75
2022/04/19 09:05:14;;;;;;;2.40;1.35;;;11.70;64.70;;;;;;5033778;28;20025;-75
2022/04/19 09:07:41;;;;;;;0.20;0.20;;;11.90;64.60;;;;;;5031446;28;20033;-74
2022/04/19 09:10:11;;;;;;;0.20;0.20;;;12.00;64.10;;;;;;5042390;28;20152;-77
2022/04/19 09:12:37;;;;;;;0.30;0.30;;;12.20;64.20;;;;;;5034015;28;20033;-76
2022/04/19 09:15:06;;;;;;;0.30;0.30;;;12.50;63.50;;;;;;5032374;28;20021;-76
2022/04/19 09:17:40;;;;;;;0.47;0.47;;;12.30;62.70;;;;;;5014549;28;20037;-76
2022/04/19 09:20:18;;;;;;;0.32;0.32;;;12.30;62.80;;;;;;5042151;28;20691;-76
2022/04/19 09:22:44;;;;;;;0.20;0.20;;;12.50;63.30;;;;;;5042056;28;20032;-76
2022/04/19 09:25:15;;;;;;;1.67;1.55;;;12.60;61.80;;;;;;5032880;28;20057;-76
2022/04/19 09:27:42;;;;;;;0.20;0.20;;;12.60;61.50;;;;;;5032544;28;20419;-76
2022/04/19 09:30:23;;;;;;;0.20;0.20;;;12.70;61.90;;;;;;5029474;28;20409;-77
2022/04/19 09:33:10;;;;;;;0.20;0.20;;;12.90;61.40;;;;;;5029862;28;20090;-77
2022/04/19 09:35:43;;;;;;;0.20;0.20;;;12.90;60.90;;;;;;5031502;28;20055;-77
2022/04/19 09:38:09;;;;;;;0.55;0.55;;;12.70;61.10;;;;;;5041861;28;20029;-77
2022/04/19 09:40:37;;;;;;;0.20;0.20;;;12.60;60.60;;;;;;5033354;28;20512;-77
2022/04/19 09:43:10;;;;;;;0.30;0.30;;;12.50;60.90;;;;;;5041352;28;20496;-76
2022/04/19 09:45:46;;;;;;;0.50;0.50;;;12.40;61.60;;;;;;5017926;28;20583;-76
2022/04/19 09:48:20;;;;;;;0.30;0.30;;;12.60;60.60;;;;;;5014661;28;20480;-75
2022/04/19 09:50:55;;;;;;;0.20;0.20;;;12.50;58.80;;;;;;5032634;28;20484;-76
2022/04/19 09:53:23;;;;;;;0.32;0.32;;;12.60;59.20;;;;;;5041917;28;20428;-75
2022/04/19 09:55:51;;;;;;;0.17;0.17;;;12.70;58.20;;;;;;5041650;28;20452;-75
2022/04/19 09:58:18;;;;;;;0.22;0.22;;;12.70;57.60;;;;;;5041422;28;20040;-77
2022/04/19 10:00:45;;;;;;;0.93;0.88;;;12.90;57.60;;;;;;5032194;28;20037;-75
2022/04/19 10:08:37;;;;;;;0.20;0.20;;;13.00;57.90;;;;;;5028207;28;20039;-76
2022/04/19 10:11:04;;;;;;;0.20;0.20;;;13.00;57.90;;;;;;5045679;28;20029;-76
2022/04/19 10:13:32;;;;;;;0.20;0.20;;;13.10;59.60;;;;;;5030157;28;20035;-74
2022/04/19 10:15:58;;;;;;;0.55;0.55;;;13.10;58.20;;;;;;5041218;28;20033;-77
2022/04/19 10:18:24;;;;;;;0.20;0.20;;;13.00;58.30;;;;;;5016744;28;20032;-78
2022/04/19 10:20:58;;;;;;;0.20;0.20;;;12.90;58.30;;;;;;5028055;28;20480;-77
2022/04/19 10:23:39;;;;;;;0.30;0.30;;;12.80;58.60;;;;;;5030107;28;20036;-77
2022/04/19 10:26:19;;;;;;;0.22;0.22;;;12.90;58.90;;;;;;5012789;28;20515;-76
2022/04/19 10:28:47;;;;;;;0.50;0.50;;;12.90;59.10;;;;;;5039290;28;20026;-76
2022/04/19 10:31:23;;;;;;;0.28;0.28;;;12.80;58.70;;;;;;5041200;28;20116;-76
2022/04/19 10:33:54;;;;;;;0.20;0.20;;;12.70;58.80;;;;;;5040823;28;20426;-77
2022/04/19 10:36:40;;;;;;;0.32;0.32;;;12.90;58.90;;;;;;5029782;28;20028;-76
2022/04/19 10:39:11;;;;;;;0.65;0.65;;;12.90;58.70;;;;;;5040022;28;20098;-76
2022/04/19 10:41:58;;;;;;;0.40;0.40;;;13.10;58.30;;;;;;5040688;28;20032;-77
2022/04/19 10:44:55;;;;;;;0.25;0.25;;;13.40;57.90;;;;;;5040693;28;20025;-77
2022/04/19 10:47:23;;;;;;;2.20;0.90;;;13.50;57.40;;;;;;5010181;28;20499;-77
2022/04/19 10:49:54;;;;;;;2.92;1.48;;;13.10;56.80;;;;;;5030881;28;20024;-76
2022/04/19 10:52:43;;;;;;;0.63;0.63;;;13.00;57.40;;;;;;5030594;28;20118;-77
2022/04/19 10:55:18;;;;;;;0.20;0.20;;;13.10;57.90;;;;;;5039507;28;20056;-75
2022/04/19 11:00:54;;;;;;;0.20;0.20;;;13.20;56.70;;;;;;5039075;28;20629;-77
2022/04/19 11:03:29;;;;;;;2.08;0.65;;;13.50;56.60;;;;;;5012346;28;20118;-76
2022/04/19 11:05:56;;;;;;;0.20;0.20;;;13.60;56.40;;;;;;5028809;28;20037;-75
2022/04/19 11:08:32;;;;;;;0.20;0.20;;;13.80;56.40;;;;;;5040384;28;20037;-76
2022/04/19 11:11:06;;;;;;;0.15;0.15;;;13.90;56.70;;;;;;5032622;28;20396;-76
2022/04/19 11:13:36;;;;;;;0.20;0.20;;;13.90;57.10;;;;;;5029456;28;20029;-77
2022/04/19 11:16:13;;;;;;;0.43;0.43;;;13.90;56.10;;;;;;5029458;28;20029;-76
2022/04/19 11:18:39;;;;;;;0.20;0.20;;;13.90;56.80;;;;;;5040250;28;20047;-77
2022/04/19 11:21:12;;;;;;;3.60;3.28;;;14.10;56.80;;;;;;5040270;28;20025;-77
2022/04/19 11:23:45;;;;;;;0.20;0.20;;;14.00;57.00;;;;;;5040486;28;20049;-76
2022/04/19 11:26:26;;;;;;;0.65;0.65;;;14.10;57.00;;;;;;5030316;28;20404;-76
2022/04/19 11:29:23;;;;;;;0.38;0.38;;;14.00;56.10;;;;;;5031322;28;20190;-76
2022/04/19 11:31:49;;;;;;;1.45;1.15;;;14.10;56.00;;;;;;5008401;28;20037;-76
2022/04/19 11:34:16;;;;;;;0.60;0.52;;;13.80;55.20;;;;;;5040246;28;20028;-76
2022/04/19 11:36:45;;;;;;;0.20;0.20;;;13.80;55.50;;;;;;5027829;28;20221;-77
2022/04/19 11:47:58;;;;;;;0.45;0.45;;;14.00;57.10;;;;;;5044138;28;20124;-77
2022/04/19 11:50:31;;;;;;;0.75;0.75;;;14.00;57.00;;;;;;5017882;28;20477;-77
2022/04/19 11:53:03;;;;;;;1.55;0.73;;;14.10;56.20;;;;;;5017476;28;20036;-76
2022/04/19 11:55:28;;;;;;;;;;;14.10;56.10;;;;;;5044221;28;20033;-76
2022/04/19 11:58:07;;;;;;;0.40;0.40;;;14.20;56.30;;;;;;5043315;28;19912;-76
2022/04/19 12:00:34;;;;;;;0.75;0.55;;;14.40;56.30;;;;;;5042532;28;20039;-77
2022/04/19 12:03:03;;;;;;;6.00;1.10;;;14.30;56.00;;;;;;5043705;28;20529;-76
2022/04/19 12:05:30;;;;;;;0.20;0.20;;;14.30;56.10;;;;;;5032887;28;20055;-76
2022/04/19 12:07:57;;;;;;;4.47;3.33;;;14.70;55.00;;;;;;5034023;28;20151;-76
2022/04/19 12:10:23;;;;;;;0.50;0.50;;;14.80;54.60;;;;;;5033616;28;20037;-76
2022/04/19 12:12:50;;;;;;;0.20;0.20;;;14.80;55.00;;;;;;5043046;28;20500;-76
2022/04/19 12:15:39;;;;;;;0.40;0.40;;;14.70;55.00;;;;;;5044009;28;20033;-76
2022/04/19 12:18:05;;;;;;;0.35;0.35;;;14.80;54.10;;;;;;5034448;28;20036;-75
2022/04/19 12:20:42;;;;;;;0.30;0.30;;;14.80;54.30;;;;;;5042982;28;20033;-76
2022/04/19 12:23:19;;;;;;;0.50;0.50;;;14.90;55.10;;;;;;5043820;28;20468;-76
2022/04/19 12:25:58;;;;;;;0.17;0.17;;;14.80;55.00;;;;;;5042214;28;20032;-75
2022/04/19 12:28:36;;;;;;;0.20;0.20;;;15.00;54.80;;;;;;5016621;28;20040;-78
2022/04/19 12:31:02;;;;;;;0.90;0.90;;;15.00;53.90;;;;;;5043063;28;20159;-76
2022/04/19 12:33:28;;;;;;;0.20;0.20;;;15.00;54.60;;;;;;5032695;28;20048;-75
2022/04/19 12:35:54;;;;;;;0.50;0.50;;;15.10;54.20;;;;;;5014398;28;20124;-76
2022/04/19 12:38:28;;;;;;;1.42;1.38;;;15.00;54.60;;;;;;5033318;28;20496;-75
2022/04/19 12:40:54;;;;;;;4.68;1.55;;;15.10;54.60;;;;;;5034061;28;20033;-76
2022/04/19 12:43:20;;;;;;;0.47;0.47;;;15.10;54.10;;;;;;5015735;28;20082;-76
2022/04/19 12:45:46;;;;;;;0.20;0.20;;;15.30;53.50;;;;;;5033580;28;20056;-76
2022/04/19 12:48:20;;;;;;;5.40;1.58;;;15.50;53.40;;;;;;5033323;28;20513;-75
2022/04/19 12:50:46;;;;;;;0.15;0.15;;;15.40;53.10;;;;;;5017218;28;20032;-78
2022/04/19 12:53:22;;;;;;;0.45;0.45;;;15.20;53.70;;;;;;5042874;28;20021;-75
2022/04/19 12:55:48;;;;;;;0.32;0.32;;;15.20;54.20;;;;;;5042601;28;20029;-77
2022/04/19 12:58:14;;;;;;;2.33;1.05;;;15.30;53.90;;;;;;5043703;28;20670;-77
2022/04/19 13:00:40;;;;;;;0.65;0.65;;;15.30;52.40;;;;;;5030987;28;20037;-77
2022/04/19 13:03:05;;;;;;;0.20;0.20;;;15.10;52.90;;;;;;5034085;28;20037;-75
2022/04/19 13:13:44;;;;;;;0.20;0.20;;;15.20;52.90;;;;;;5042542;28;20040;-77
2022/04/19 13:16:11;;;;;;;0.25;0.25;;;15.40;52.90;;;;;;5033563;28;20032;-76
2022/04/19 13:18:36;;;;;;;0.45;0.35;;;15.20;52.90;;;;;;5042405;28;20081;-75
2022/04/19 13:21:03;;;;;;;0.38;0.38;;;15.20;53.30;;;;;;5042786;28;20048;-76
2022/04/19 13:23:29;;;;;;;1.65;0.80;;;15.10;53.40;;;;;;5033728;28;20029;-76
2022/04/19 13:25:55;;;;;;;0.93;0.75;;;15.00;52.40;;;;;;5042256;28;20055;-77
2022/04/19 13:28:25;;;;;;;0.65;0.65;;;15.00;52.20;;;;;;5033682;28;20033;-77
2022/04/19 13:30:52;;;;;;;3.10;0.75;;;14.90;52.30;;;;;;5041712;28;20032;-78
2022/04/19 13:33:18;;;;;;;0.30;0.30;;;14.90;52.80;;;;;;5041849;28;20029;-77
2022/04/19 13:35:43;;;;;;;0.73;0.73;;;14.80;52.90;;;;;;5034001;28;20040;-76
2022/04/19 13:38:24;;;;;;;1.98;0.82;;;14.60;53.10;;;;;;5042153;28;20167;-75
2022/04/19 13:40:51;;;;;;;1.10;1.05;;;14.40;53.70;;;;;;5031513;28;20720;-75
2022/04/19 13:43:17;;;;;;;0.63;0.50;;;14.50;53.60;;;;;;5030540;28;20033;-75
2022/04/19 13:45:43;;;;;;;2.50;1.13;;;14.40;53.20;;;;;;5041658;28;20043;-76
2022/04/19 13:48:09;;;;;;;5.05;2.83;;;14.40;53.40;;;;;;5035094;28;20083;-76
2022/04/19 13:50:35;;;;;;;0.20;0.20;;;14.20;53.60;;;;;;5015980;28;20396;-76
2022/04/19 13:53:03;;;;;;;3.30;0.60;;;14.20;54.20;;;;;;5033160;28;20766;-77
2022/04/19 13:55:29;;;;;;;3.83;2.15;;;14.40;53.90;;;;;;5031648;28;20057;-76
2022/04/19 13:57:55;;;;;;;0.43;0.43;;;14.40;53.50;;;;;;5041345;28;20354;-76
2022/04/19 14:00:24;;;;;;;8.57;1.42;;;14.60;53.60;;;;;;5041648;28;20044;-76
2022/04/19 14:02:50;;;;;;;0.50;0.50;;;14.50;53.30;;;;;;5031788;28;20047;-77
2022/04/19 14:05:16;;;;;;;0.20;0.20;;;14.50;53.60;;;;;;5033600;28;20036;-76
2022/04/19 14:07:42;;;;;;;0.77;0.73;;;14.50;53.60;;;;;;5030307;28;20099;-77
2022/04/19 14:10:09;;;;;;;1.63;1.20;;;14.50;53.00;;;;;;5029296;28;20531;-76
2022/04/19 14:12:35;;;;;;;0.13;0.13;;;14.40;53.20;;;;;;5041797;28;20029;-76
2022/04/19 14:15:01;;;;;;;2.65;1.02;;;14.40;53.10;;;;;;5029064;28;20389;-77
2022/04/19 14:17:27;;;;;;;0.22;0.22;;;14.40;53.30;;;;;;5041196;28;20020;-77
2022/04/19 14:19:53;;;;;;;0.75;0.60;;;14.30;52.80;;;;;;5041142;28;20372;-77
2022/04/19 14:22:20;;;;;;;0.30;0.30;;;14.20;52.50;;;;;;5014013;28;20032;-77